Time;durP1;ratioP1;P1;durP2;ratioP2;P2;SDS_P1;SDS_P2;PMS_P1;PMS_P2;Temp;Humidity;BMP_temperature;BMP_pressure;BME280_temperature;BME280_humidity;BME280_pressure;Samples;Min_cycle;Max_cycle;Signal;HPM_P1;HPM_P2
2022/06/13 00:00:22;;;;;;;12.30;5.15;;;15.30;99.90;;;;;;5103682;28;20039;-64
2022/06/13 00:02:47;;;;;;;9.98;5.35;;;15.40;99.90;;;;;;5057697;28;20401;-63
2022/06/13 00:05:15;;;;;;;10.07;5.28;;;15.40;99.90;;;;;;5003225;28;20117;-64
2022/06/13 00:07:40;;;;;;;14.00;5.50;;;15.40;99.90;;;;;;5002351;28;20072;-64
2022/06/13 00:10:08;;;;;;;10.95;5.40;;;15.40;99.90;;;;;;5083147;28;20070;-64
2022/06/13 00:12:35;;;;;;;10.48;4.88;;;15.50;99.90;;;;;;5001937;28;20121;-64
2022/06/13 00:15:01;;;;;;;12.20;5.45;;;15.50;99.90;;;;;;5013760;28;20045;-63
2022/06/13 00:17:26;;;;;;;9.85;4.80;;;15.40;99.90;;;;;;5001262;28;20117;-63
2022/06/13 00:19:52;;;;;;;11.27;5.20;;;15.40;99.90;;;;;;5000783;28;20449;-64
2022/06/13 00:22:18;;;;;;;10.80;4.93;;;15.40;99.90;;;;;;5002538;28;20109;-64
2022/06/13 00:24:45;;;;;;;15.55;5.57;;;15.40;99.90;;;;;;5064282;28;20069;-63
2022/06/13 00:27:11;;;;;;;13.05;5.40;;;15.40;99.90;;;;;;5002402;28;20458;-63
2022/06/13 00:29:38;;;;;;;13.55;5.00;;;15.40;99.90;;;;;;5002811;28;20043;-64
2022/06/13 00:32:04;;;;;;;11.68;5.35;;;15.40;99.90;;;;;;5063997;28;20065;-63
2022/06/13 00:34:29;;;;;;;14.35;5.78;;;15.40;99.90;;;;;;5010685;28;20036;-64
2022/06/13 00:36:55;;;;;;;12.68;5.53;;;15.40;99.90;;;;;;5003136;28;20463;-64
2022/06/13 00:39:21;;;;;;;14.35;5.85;;;15.40;99.90;;;;;;5068413;28;20038;-63
2022/06/13 00:41:48;;;;;;;13.25;5.30;;;15.40;99.90;;;;;;5001404;28;20048;-64
2022/06/13 00:44:21;;;;;;;14.63;5.70;;;15.30;99.90;;;;;;5007794;28;20435;-64
2022/06/13 00:46:48;;;;;;;11.88;5.70;;;15.30;99.90;;;;;;5000907;28;20113;-63
2022/06/13 00:49:25;;;;;;;14.77;5.65;;;15.30;99.90;;;;;;5000251;28;20361;-64
2022/06/13 00:52:08;;;;;;;15.57;5.97;;;15.30;99.90;;;;;;4999154;28;20057;-63
2022/06/13 00:54:36;;;;;;;15.52;6.32;;;15.30;99.90;;;;;;5007646;28;20036;-63
2022/06/13 00:57:04;;;;;;;14.45;6.22;;;15.30;99.90;;;;;;4997642;28;20068;-64
2022/06/13 00:59:33;;;;;;;15.13;5.90;;;15.30;99.90;;;;;;5002342;28;20038;-64
2022/06/13 01:01:59;;;;;;;16.45;6.28;;;15.30;99.90;;;;;;5001079;28;20060;-65
2022/06/13 01:04:25;;;;;;;16.33;6.60;;;15.20;99.90;;;;;;5007713;28;20089;-64
2022/06/13 01:06:51;;;;;;;18.45;6.72;;;15.20;99.90;;;;;;5000952;28;20449;-64
2022/06/13 01:11:16;;;;;;;14.57;6.47;;;15.20;99.90;;;;;;4999829;28;20060;-64
2022/06/13 01:12:06;;;;;;;17.63;6.97;;;15.20;99.90;;;;;;4997266;28;20117;-64
2022/06/13 01:15:02;;;;;;;14.85;6.82;;;15.10;99.90;;;;;;5009339;28;20360;-64
2022/06/13 01:17:47;;;;;;;15.82;6.28;;;15.10;99.90;;;;;;4998756;28;20060;-63
2022/06/13 01:20:36;;;;;;;;;;;15.00;99.90;;;;;;4999130;28;20034;-63
2022/06/13 01:23:29;;;;;;;15.40;6.65;;;15.00;99.90;;;;;;5068356;28;20246;-63
2022/06/13 01:26:00;;;;;;;13.43;6.47;;;15.00;99.90;;;;;;5007403;28;20354;-64
2022/06/13 01:28:48;;;;;;;14.85;5.88;;;14.90;99.90;;;;;;5000960;28;20037;-63
2022/06/13 01:31:38;;;;;;;14.45;5.32;;;15.00;99.90;;;;;;5002048;28;20045;-64
2022/06/13 01:34:15;;;;;;;13.70;5.72;;;14.80;99.90;;;;;;4998015;28;20038;-64
2022/06/13 01:37:01;;;;;;;12.55;5.68;;;14.80;99.90;;;;;;5065130;28;20731;-63
2022/06/13 01:39:57;;;;;;;14.32;6.13;;;14.80;99.90;;;;;;5066910;28;20121;-63
2022/06/13 01:42:58;;;;;;;11.32;4.80;;;14.70;99.90;;;;;;4996935;28;20040;-65
2022/06/13 01:45:46;;;;;;;9.98;4.85;;;14.70;99.90;;;;;;4971657;28;20054;-65
2022/06/13 01:48:12;;;;;;;12.50;5.03;;;14.70;99.90;;;;;;4999612;28;20052;-63
2022/06/13 01:50:52;;;;;;;11.77;5.47;;;14.70;99.90;;;;;;4998235;28;20034;-63
2022/06/13 01:53:29;;;;;;;11.00;5.15;;;14.80;99.90;;;;;;5065185;28;20139;-63
2022/06/13 01:56:08;;;;;;;11.63;5.82;;;14.70;99.90;;;;;;5000800;28;20133;-63
2022/06/13 01:59:12;;;;;;;16.30;5.97;;;14.70;99.90;;;;;;5001126;28;20091;-64
2022/06/13 02:01:53;;;;;;;13.32;6.10;;;14.70;99.90;;;;;;5013720;28;20124;-63
2022/06/13 02:04:28;;;;;;;14.85;5.85;;;14.70;99.90;;;;;;5007032;28;20064;-63
2022/06/13 02:07:04;;;;;;;14.25;6.40;;;14.70;99.90;;;;;;5040463;28;20036;-64
2022/06/13 02:09:40;;;;;;;15.30;6.10;;;14.60;99.90;;;;;;5099576;28;20044;-63
2022/06/13 02:12:06;;;;;;;12.85;6.57;;;14.70;99.90;;;;;;5099448;28;20028;-64
2022/06/13 02:14:36;;;;;;;14.63;6.78;;;14.60;99.90;;;;;;5098386;28;20032;-64
2022/06/13 02:17:21;;;;;;;13.48;7.28;;;14.60;99.90;;;;;;5100603;28;20417;-63
2022/06/13 02:19:58;;;;;;;14.32;7.45;;;14.60;99.90;;;;;;5098168;28;20027;-63
2022/06/13 02:22:35;;;;;;;13.43;7.18;;;14.50;99.90;;;;;;5099052;28;20039;-63
2022/06/13 02:25:36;;;;;;;14.02;7.32;;;14.50;99.90;;;;;;5081820;28;20036;-63
2022/06/13 02:28:08;;;;;;;17.73;7.97;;;14.50;99.90;;;;;;5001088;28;20522;-64
2022/06/13 02:30:44;;;;;;;16.60;8.32;;;14.60;99.90;;;;;;4998037;28;20458;-64
2022/06/13 02:33:21;;;;;;;14.48;7.95;;;14.50;99.90;;;;;;4994416;28;20133;-64
2022/06/13 02:35:53;;;;;;;15.85;8.00;;;14.50;99.90;;;;;;4997686;28;20046;-63
2022/06/13 02:38:25;;;;;;;14.77;8.25;;;14.50;99.90;;;;;;5000279;28;20052;-63
2022/06/13 02:41:15;;;;;;;15.13;8.18;;;14.60;99.90;;;;;;4997634;28;20332;-64
2022/06/13 02:43:49;;;;;;;16.65;7.90;;;14.60;99.90;;;;;;4998756;28;20430;-63
2022/06/13 02:46:37;;;;;;;17.05;8.40;;;14.60;99.90;;;;;;5004548;28;20124;-63
2022/06/13 02:49:25;;;;;;;18.38;8.63;;;14.60;99.90;;;;;;4999901;28;20041;-63
2022/06/13 02:52:18;;;;;;;18.38;9.02;;;14.50;99.90;;;;;;4993342;28;20046;-64
2022/06/13 02:55:12;;;;;;;14.18;7.97;;;14.50;99.90;;;;;;4999956;28;20474;-63
2022/06/13 02:57:40;;;;;;;15.05;9.30;;;14.60;99.90;;;;;;4996455;28;20056;-64
2022/06/13 03:00:11;;;;;;;15.32;9.05;;;14.60;99.90;;;;;;4997864;28;20048;-64
2022/06/13 03:02:48;;;;;;;18.45;9.55;;;14.60;99.90;;;;;;4998135;28;20068;-63
2022/06/13 03:05:20;;;;;;;17.63;9.63;;;14.60;99.90;;;;;;5002218;28;20058;-65
2022/06/13 03:08:06;;;;;;;19.63;8.85;;;14.60;99.90;;;;;;4994945;28;20041;-64
2022/06/13 03:10:41;;;;;;;18.27;10.40;;;14.60;99.90;;;;;;5035897;28;20146;-63
2022/06/13 03:13:31;;;;;;;16.75;9.57;;;14.50;99.90;;;;;;5096634;28;20032;-63
2022/06/13 03:16:03;;;;;;;19.20;9.18;;;14.50;99.90;;;;;;5098762;28;20110;-64
2022/06/13 03:18:36;;;;;;;22.25;9.63;;;14.50;99.90;;;;;;5097845;28;20043;-63
2022/06/13 03:21:10;;;;;;;18.90;9.70;;;14.50;99.90;;;;;;5100292;28;20044;-64
2022/06/13 03:23:47;;;;;;;;;;;14.50;99.90;;;;;;5101571;28;20075;-64
2022/06/13 03:26:22;;;;;;;16.30;10.07;;;14.50;99.90;;;;;;5098875;28;19920;-63
2022/06/13 03:28:57;;;;;;;21.33;10.23;;;14.60;99.90;;;;;;5098472;28;20066;-64
2022/06/13 03:31:39;;;;;;;25.05;11.63;;;14.60;99.90;;;;;;5097093;28;20637;-64
2022/06/13 03:34:13;;;;;;;24.08;10.30;;;14.60;99.90;;;;;;4995216;28;20287;-65
2022/06/13 03:36:48;;;;;;;22.15;9.93;;;14.60;99.90;;;;;;4996270;28;20042;-63
2022/06/13 03:39:25;;;;;;;21.50;10.30;;;14.50;99.90;;;;;;5000083;28;20034;-64
2022/06/13 03:42:02;;;;;;;21.38;10.65;;;14.70;99.90;;;;;;4999668;28;20125;-64
2022/06/13 03:44:51;;;;;;;18.30;9.57;;;14.70;99.90;;;;;;5060841;28;20042;-64
2022/06/13 03:47:35;;;;;;;21.77;10.63;;;14.80;99.90;;;;;;5000840;28;20031;-63
2022/06/13 03:50:31;;;;;;;18.42;9.82;;;14.80;99.90;;;;;;5001197;28;20034;-64
2022/06/13 03:53:19;;;;;;;21.67;10.60;;;14.80;99.90;;;;;;4998871;28;20081;-64
2022/06/13 03:56:09;;;;;;;24.20;10.10;;;14.90;99.90;;;;;;5077721;28;20290;-64
2022/06/13 03:58:44;;;;;;;18.80;8.95;;;14.90;99.90;;;;;;5078733;28;20482;-65
2022/06/13 04:01:16;;;;;;;19.10;8.93;;;15.00;99.90;;;;;;5098317;28;20039;-63
2022/06/13 04:03:42;;;;;;;12.38;5.97;;;14.90;99.90;;;;;;5099559;28;20069;-64
2022/06/13 04:06:36;;;;;;;12.55;5.68;;;15.00;99.90;;;;;;5098052;28;20031;-64
2022/06/13 04:09:06;;;;;;;11.30;4.30;;;15.00;99.90;;;;;;5102042;28;20063;-64
2022/06/13 04:12:17;;;;;;;9.82;3.53;;;15.00;99.90;;;;;;5098639;28;20055;-65
2022/06/13 04:14:54;;;;;;;11.27;3.97;;;15.10;99.90;;;;;;5025883;28;20033;-64
2022/06/13 04:17:48;;;;;;;15.40;4.03;;;15.10;99.90;;;;;;5028804;28;20116;-64
2022/06/13 04:20:52;;;;;;;10.63;3.45;;;15.20;99.90;;;;;;5082919;28;20040;-64
2022/06/13 04:23:21;;;;;;;11.00;3.45;;;15.10;99.90;;;;;;5101844;28;20048;-64
2022/06/13 04:25:56;;;;;;;9.20;3.50;;;15.20;99.90;;;;;;5102357;28;20451;-64
2022/06/13 04:28:28;;;;;;;10.48;3.67;;;15.20;99.90;;;;;;5099418;28;20039;-65
2022/06/13 04:30:56;;;;;;;11.45;3.75;;;15.20;99.90;;;;;;5104674;28;20036;-64
2022/06/13 04:33:32;;;;;;;10.18;3.45;;;15.30;99.90;;;;;;5100598;28;20182;-65
2022/06/13 04:35:59;;;;;;;10.90;3.72;;;15.20;99.90;;;;;;5100157;28;20056;-64
2022/06/13 04:38:27;;;;;;;11.35;3.35;;;15.30;99.90;;;;;;5104928;28;20035;-64
2022/06/13 04:40:57;;;;;;;9.40;2.85;;;15.40;99.90;;;;;;5103003;28;20115;-64
2022/06/13 04:43:27;;;;;;;9.48;3.15;;;15.50;99.90;;;;;;5099709;28;20044;-65
2022/06/13 04:45:58;;;;;;;11.05;3.28;;;15.60;99.90;;;;;;5104557;28;20028;-64
2022/06/13 04:48:24;;;;;;;10.50;3.17;;;15.60;99.90;;;;;;5097406;28;20028;-65
2022/06/13 04:51:05;;;;;;;8.75;2.85;;;15.80;99.90;;;;;;5102581;28;20345;-64
2022/06/13 04:54:00;;;;;;;14.30;3.15;;;15.80;99.90;;;;;;4999136;28;20112;-64
2022/06/13 04:56:27;;;;;;;9.57;3.20;;;15.80;99.90;;;;;;5013343;28;20057;-64
2022/06/13 04:58:55;;;;;;;11.27;2.83;;;15.90;99.90;;;;;;5000023;28;20531;-64
2022/06/13 05:01:31;;;;;;;9.18;3.13;;;15.90;99.90;;;;;;5082061;28;20043;-65
2022/06/13 05:04:00;;;;;;;8.52;3.25;;;15.80;99.90;;;;;;5101702;28;20448;-64
2022/06/13 05:06:46;;;;;;;8.95;3.53;;;15.80;99.90;;;;;;5082607;28;20539;-64
2022/06/13 05:09:11;;;;;;;9.88;3.13;;;15.80;99.90;;;;;;5091746;28;20242;-65
2022/06/13 05:11:48;;;;;;;10.57;2.88;;;15.80;99.90;;;;;;5099756;28;20036;-64
2022/06/13 05:14:21;;;;;;;13.75;3.35;;;15.80;99.90;;;;;;5102982;28;20047;-64
2022/06/13 05:16:54;;;;;;;10.85;3.00;;;16.00;99.90;;;;;;5099872;28;20036;-64
2022/06/13 05:19:43;;;;;;;8.95;2.70;;;16.20;99.90;;;;;;5000481;28;20045;-65
2022/06/13 05:22:33;;;;;;;12.57;2.60;;;16.30;99.90;;;;;;4997371;28;20159;-63
2022/06/13 05:25:23;;;;;;;8.95;2.58;;;16.60;99.90;;;;;;4999843;28;20042;-65
2022/06/13 05:27:49;;;;;;;9.85;2.78;;;16.90;99.90;;;;;;4997889;28;20044;-65
2022/06/13 05:30:17;;;;;;;9.20;2.40;;;17.70;99.90;;;;;;5072403;28;20031;-66
2022/06/13 05:32:43;;;;;;;10.55;2.53;;;18.40;99.90;;;;;;5052397;28;20053;-65
2022/06/13 05:35:17;;;;;;;9.32;2.30;;;18.90;99.90;;;;;;5001113;28;20524;-65
2022/06/13 05:37:43;;;;;;;8.63;2.55;;;19.50;99.90;;;;;;4996712;28;20489;-65
2022/06/13 05:40:17;;;;;;;7.68;2.40;;;19.80;99.90;;;;;;5101399;28;20036;-64
2022/06/13 05:42:43;;;;;;;8.88;2.67;;;19.50;99.90;;;;;;5098089;28;20419;-64
2022/06/13 05:45:16;;;;;;;7.13;2.17;;;19.00;99.90;;;;;;5102927;28;20112;-64
2022/06/13 05:47:45;;;;;;;6.18;2.22;;;18.50;99.90;;;;;;5095199;28;20384;-65
2022/06/13 05:50:24;;;;;;;6.30;2.25;;;18.10;99.90;;;;;;5098698;28;20834;-64
2022/06/13 05:52:50;;;;;;;10.98;2.00;;;17.80;99.90;;;;;;4995644;28;20479;-65
2022/06/13 05:55:17;;;;;;;7.22;2.20;;;17.60;99.90;;;;;;5008672;28;20208;-65
2022/06/13 05:57:43;;;;;;;9.27;2.35;;;17.40;99.90;;;;;;4993731;28;20041;-63
2022/06/13 06:00:18;;;;;;;7.55;2.35;;;17.30;99.90;;;;;;4998480;28;20073;-63
2022/06/13 06:02:44;;;;;;;9.15;2.67;;;17.30;99.90;;;;;;4998179;28;20208;-64
2022/06/13 06:05:10;;;;;;;10.25;2.22;;;17.20;99.90;;;;;;5011080;28;20034;-62
2022/06/13 06:07:37;;;;;;;10.57;2.53;;;17.40;99.90;;;;;;4997775;28;20117;-63
2022/06/13 06:10:03;;;;;;;8.00;2.22;;;17.80;99.90;;;;;;4996264;28;20084;-64
2022/06/13 06:12:29;;;;;;;8.60;2.63;;;18.40;99.90;;;;;;4999775;28;20080;-63
2022/06/13 06:14:54;;;;;;;8.68;2.10;;;18.70;99.90;;;;;;5047643;28;20070;-62
2022/06/13 06:17:20;;;;;;;10.13;2.33;;;18.80;99.90;;;;;;5006856;28;20382;-63
2022/06/13 06:19:46;;;;;;;8.52;2.55;;;18.80;99.90;;;;;;5096582;28;20039;-63
2022/06/13 06:22:12;;;;;;;4.90;1.77;;;18.90;99.90;;;;;;5101822;28;20172;-63
2022/06/13 06:24:38;;;;;;;7.35;2.10;;;18.80;99.90;;;;;;5097881;28;20052;-63
2022/06/13 06:27:04;;;;;;;7.95;2.33;;;18.70;99.90;;;;;;5101440;28;20032;-63
2022/06/13 06:29:30;;;;;;;7.25;2.20;;;18.70;99.90;;;;;;4998645;28;20047;-64
2022/06/13 06:31:55;;;;;;;10.43;2.40;;;18.80;99.90;;;;;;5066893;28;20059;-64
2022/06/13 06:34:24;;;;;;;10.48;2.13;;;18.70;99.90;;;;;;5100353;28;20474;-64
2022/06/13 06:36:49;;;;;;;4.72;2.00;;;18.80;99.90;;;;;;5099901;28;20420;-64
2022/06/13 06:39:15;;;;;;;9.32;2.47;;;18.90;99.90;;;;;;5100295;28;20083;-63
2022/06/13 06:41:42;;;;;;;10.10;2.58;;;18.60;99.90;;;;;;5099788;28;20700;-63
2022/06/13 06:44:08;;;;;;;6.68;2.20;;;18.10;99.90;;;;;;5080108;28;20040;-63
2022/06/13 06:46:33;;;;;;;7.25;2.25;;;17.90;99.90;;;;;;5055005;28;20422;-63
2022/06/13 06:48:59;;;;;;;12.30;2.42;;;17.70;99.90;;;;;;4997492;28;20045;-64
2022/06/13 06:51:29;;;;;;;11.63;2.50;;;17.40;99.90;;;;;;5094877;28;20031;-63
2022/06/13 07:02:08;;;;;;;7.47;2.58;;;17.00;99.90;;;;;;5091833;28;19973;-63
2022/06/13 07:04:33;;;;;;;10.52;2.53;;;16.90;99.90;;;;;;5099484;28;20468;-63
2022/06/13 07:06:59;;;;;;;8.70;2.13;;;16.80;99.90;;;;;;5099303;28;20040;-64
2022/06/13 07:09:24;;;;;;;9.55;1.80;;;17.00;99.90;;;;;;5099503;28;20035;-65
2022/06/13 07:11:54;;;;;;;8.98;2.00;;;17.40;99.90;;;;;;5100223;28;20070;-64
2022/06/13 07:14:34;;;;;;;9.25;1.95;;;17.70;99.90;;;;;;5100162;28;20051;-64
2022/06/13 07:17:02;;;;;;;7.15;2.40;;;17.60;99.90;;;;;;5090747;28;20119;-64
2022/06/13 07:19:29;;;;;;;13.02;2.58;;;17.40;99.90;;;;;;5075660;28;20043;-63
2022/06/13 07:21:55;;;;;;;9.18;1.88;;;17.30;99.90;;;;;;5099978;28;20075;-64
2022/06/13 07:24:21;;;;;;;6.55;2.17;;;17.30;99.90;;;;;;5099135;28;20143;-65
2022/06/13 07:26:48;;;;;;;8.27;2.03;;;17.30;99.90;;;;;;5098365;28;20024;-63
2022/06/13 07:29:17;;;;;;;8.57;1.88;;;17.20;99.90;;;;;;5083636;28;20066;-64
2022/06/13 07:31:47;;;;;;;4.60;1.58;;;17.20;99.90;;;;;;5094850;28;20032;-64
2022/06/13 07:34:19;;;;;;;8.18;2.03;;;17.30;99.90;;;;;;5100956;28;20060;-63
2022/06/13 07:36:45;;;;;;;6.70;1.90;;;17.20;99.90;;;;;;5098785;28;20074;-63
2022/06/13 07:39:11;;;;;;;6.00;1.40;;;17.20;99.90;;;;;;5098832;28;20040;-64
2022/06/13 07:41:38;;;;;;;4.43;1.50;;;17.20;99.90;;;;;;5080610;28;20048;-64
2022/06/13 07:44:05;;;;;;;6.13;1.67;;;17.40;99.90;;;;;;5097742;28;20055;-64
2022/06/13 07:46:32;;;;;;;6.80;1.92;;;17.50;99.90;;;;;;5092685;28;20377;-64
2022/06/13 07:48:59;;;;;;;4.60;1.52;;;17.50;99.90;;;;;;5098897;28;20124;-64
2022/06/13 07:51:25;;;;;;;9.77;1.70;;;17.50;99.90;;;;;;5102571;28;20035;-64
2022/06/13 07:53:52;;;;;;;7.65;2.03;;;17.50;99.90;;;;;;5103265;28;20032;-65
2022/06/13 07:56:21;;;;;;;7.70;2.05;;;17.30;99.90;;;;;;5100292;28;20127;-64
2022/06/13 07:58:50;;;;;;;8.95;1.85;;;17.30;99.90;;;;;;5099106;28;20335;-64
2022/06/13 08:01:17;;;;;;;7.03;1.70;;;17.40;99.90;;;;;;5098593;28;20108;-63
2022/06/13 08:03:43;;;;;;;6.95;1.80;;;17.70;99.90;;;;;;5100591;28;20055;-64
2022/06/13 08:06:10;;;;;;;8.73;2.10;;;18.10;99.90;;;;;;5101714;28;20059;-64
2022/06/13 08:08:39;;;;;;;7.40;2.13;;;18.10;99.90;;;;;;5100045;28;20043;-64
2022/06/13 08:11:07;;;;;;;10.63;3.28;;;18.00;99.90;;;;;;5098082;28;20464;-64
2022/06/13 08:13:35;;;;;;;9.88;3.28;;;17.80;99.90;;;;;;5095240;28;20394;-64
2022/06/13 08:16:01;;;;;;;11.45;3.60;;;17.50;99.90;;;;;;5100665;28;20043;-65
2022/06/13 08:18:27;;;;;;;16.88;3.65;;;17.30;99.90;;;;;;5096806;28;20051;-64
2022/06/13 08:20:53;;;;;;;10.75;3.35;;;17.00;99.90;;;;;;5084081;28;20235;-65
2022/06/13 08:23:20;;;;;;;11.30;2.70;;;16.90;99.90;;;;;;5104126;28;20036;-62
2022/06/13 08:25:49;;;;;;;6.65;2.13;;;16.80;99.90;;;;;;5100905;28;20376;-64
2022/06/13 08:28:15;;;;;;;7.55;2.08;;;17.00;99.90;;;;;;5103319;28;20060;-65
2022/06/13 08:30:54;;;;;;;7.68;1.60;;;17.30;99.90;;;;;;5102230;28;20104;-65
2022/06/13 08:33:21;;;;;;;7.82;1.75;;;17.50;99.90;;;;;;5105633;28;20054;-66
2022/06/13 08:35:47;;;;;;;7.60;1.73;;;17.90;99.90;;;;;;5101036;28;20086;-66
2022/06/13 08:38:13;;;;;;;5.13;1.40;;;18.10;99.90;;;;;;5100804;28;20042;-65
2022/06/13 08:40:50;;;;;;;6.68;1.60;;;18.30;99.90;;;;;;5101866;28;20027;-65
2022/06/13 08:43:42;;;;;;;4.65;1.52;;;18.10;99.90;;;;;;5100926;28;20047;-65
2022/06/13 08:46:14;;;;;;;11.18;2.88;;;17.90;99.90;;;;;;5094010;28;20042;-65
2022/06/13 08:48:44;;;;;;;7.60;2.40;;;17.80;99.90;;;;;;5102141;28;20063;-63
2022/06/13 08:51:16;;;;;;;8.45;2.47;;;18.00;99.90;;;;;;5101304;28;20048;-63
2022/06/13 08:53:53;;;;;;;12.30;3.33;;;18.10;99.90;;;;;;5100283;28;20047;-64
2022/06/13 08:56:24;;;;;;;6.53;1.60;;;18.10;99.90;;;;;;5099680;28;20071;-63
2022/06/13 08:59:24;;;;;;;3.72;1.52;;;18.10;99.90;;;;;;5085155;28;20085;-63
2022/06/13 09:02:03;;;;;;;5.68;1.38;;;18.20;99.90;;;;;;5101157;28;20040;-63
2022/06/13 09:04:34;;;;;;;6.75;1.58;;;18.20;99.90;;;;;;5097864;28;20449;-63
2022/06/13 09:07:24;;;;;;;7.78;1.42;;;18.20;99.90;;;;;;5081309;28;20063;-64
2022/06/13 09:09:58;;;;;;;8.20;1.33;;;18.50;99.90;;;;;;5100063;28;20061;-63
2022/06/13 09:13:02;;;;;;;;;;;18.60;99.90;;;;;;5100207;28;20523;-64
2022/06/13 09:15:35;;;;;;;6.70;1.33;;;18.60;99.90;;;;;;4991343;28;20458;-64
2022/06/13 09:18:16;;;;;;;4.40;1.30;;;18.50;99.90;;;;;;5003860;28;20034;-64
2022/06/13 09:20:56;;;;;;;11.73;1.50;;;18.10;99.90;;;;;;5063118;28;20051;-64
2022/06/13 09:23:35;;;;;;;10.82;1.42;;;17.90;99.90;;;;;;5102262;28;20474;-64
2022/06/13 09:26:13;;;;;;;5.90;1.63;;;17.80;99.90;;;;;;5083312;28;20080;-64
2022/06/13 09:28:46;;;;;;;12.15;1.60;;;17.90;99.90;;;;;;5103726;28;20062;-63
2022/06/13 09:31:26;;;;;;;14.02;1.85;;;18.10;99.90;;;;;;5099396;28;20044;-64
2022/06/13 09:34:05;;;;;;;10.50;1.50;;;18.20;99.90;;;;;;5100355;28;20040;-64
2022/06/13 09:36:35;;;;;;;9.88;1.50;;;18.10;99.90;;;;;;5091527;28;20089;-64
2022/06/13 09:39:06;;;;;;;9.70;1.58;;;18.20;99.90;;;;;;5099502;28;20334;-64
2022/06/13 09:41:50;;;;;;;7.03;1.42;;;18.40;99.90;;;;;;5101440;28;20044;-65
2022/06/13 09:44:40;;;;;;;5.95;1.48;;;18.60;99.90;;;;;;5101871;28;20411;-64
2022/06/13 09:47:41;;;;;;;10.20;1.60;;;18.70;99.90;;;;;;5097128;28;20115;-64
2022/06/13 09:50:16;;;;;;;8.52;1.67;;;18.50;99.90;;;;;;5063662;28;20044;-64
2022/06/13 09:53:10;;;;;;;6.20;1.50;;;18.40;99.90;;;;;;5095581;28;20047;-64
2022/06/13 09:55:44;;;;;;;5.30;1.30;;;18.20;99.90;;;;;;5080794;28;20415;-64
2022/06/13 09:58:38;;;;;;;6.47;1.90;;;18.00;99.90;;;;;;5098471;28;20028;-64
2022/06/13 10:01:04;;;;;;;;;;;18.10;99.90;;;;;;5083723;28;20067;-64
2022/06/13 10:03:45;;;;;;;6.70;1.67;;;18.30;99.90;;;;;;5084347;28;19967;-65
2022/06/13 10:06:26;;;;;;;5.40;1.40;;;18.30;99.90;;;;;;5080757;28;20032;-64
2022/06/13 10:09:14;;;;;;;7.07;1.55;;;18.50;99.90;;;;;;5100714;28;20040;-64
2022/06/13 10:12:10;;;;;;;11.38;2.00;;;18.60;99.90;;;;;;5095631;28;20050;-64
2022/06/13 10:15:02;;;;;;;10.57;2.17;;;18.60;99.90;;;;;;5100384;28;20456;-63
2022/06/13 10:17:28;;;;;;;11.27;1.95;;;18.50;99.90;;;;;;5091563;28;20329;-63
2022/06/13 10:20:18;;;;;;;6.95;1.80;;;18.60;99.90;;;;;;5100492;28;20040;-63
2022/06/13 10:22:56;;;;;;;13.57;1.98;;;18.70;99.90;;;;;;5083538;28;20032;-63
2022/06/13 10:25:45;;;;;;;8.18;1.75;;;18.60;99.90;;;;;;5100858;28;20028;-64
2022/06/13 10:28:49;;;;;;;8.82;2.10;;;18.70;99.90;;;;;;5107295;28;20039;-64
2022/06/13 10:31:24;;;;;;;9.70;1.92;;;18.80;99.90;;;;;;5104352;28;20144;-62
2022/06/13 10:34:14;;;;;;;9.38;2.28;;;18.90;99.90;;;;;;5091328;28;20051;-64
2022/06/13 10:37:25;;;;;;;10.13;1.60;;;18.60;99.90;;;;;;5097092;28;20169;-64
2022/06/13 10:39:58;;;;;;;9.65;1.50;;;18.40;99.90;;;;;;5077595;28;20116;-63
2022/06/13 10:42:29;;;;;;;9.43;1.55;;;18.60;99.90;;;;;;5097865;28;20297;-64
2022/06/13 10:44:57;;;;;;;13.55;2.70;;;18.80;99.90;;;;;;5093570;28;20048;-64
2022/06/13 10:51:05;;;;;;;10.57;1.85;;;18.70;99.90;;;;;;5089507;28;20032;-64
2022/06/13 10:54:09;;;;;;;12.52;2.25;;;18.30;99.90;;;;;;5075436;28;20498;-66
2022/06/13 10:57:00;;;;;;;6.00;1.80;;;18.10;99.90;;;;;;5066506;28;20051;-64
2022/06/13 10:59:28;;;;;;;9.30;1.50;;;18.30;99.90;;;;;;5098627;28;20043;-64
2022/06/13 11:02:03;;;;;;;10.40;1.80;;;18.50;99.90;;;;;;5101829;28;20398;-63
2022/06/13 11:04:34;;;;;;;19.98;2.40;;;18.60;99.90;;;;;;5097480;28;20048;-65
2022/06/13 11:07:13;;;;;;;12.40;2.17;;;18.60;99.90;;;;;;5098773;28;20459;-63
2022/06/13 11:09:58;;;;;;;6.10;1.52;;;18.50;99.90;;;;;;5091213;28;20332;-62
2022/06/13 11:12:26;;;;;;;7.72;1.58;;;18.40;99.90;;;;;;5096104;28;20747;-62
2022/06/13 11:23:27;;;;;;;9.07;2.28;;;18.80;99.90;;;;;;5095775;28;20222;-63
2022/06/13 11:25:58;;;;;;;9.10;1.63;;;19.00;99.90;;;;;;5103451;28;20031;-65
2022/06/13 11:28:27;;;;;;;8.00;2.75;;;19.00;99.90;;;;;;5101813;28;20407;-64
2022/06/13 11:31:14;;;;;;;8.20;1.80;;;19.10;99.90;;;;;;5102006;28;20028;-65
2022/06/13 11:33:40;;;;;;;9.15;1.95;;;19.30;99.90;;;;;;5091369;28;20124;-64
2022/06/13 11:36:12;;;;;;;7.47;1.70;;;19.30;99.90;;;;;;5101406;28;20333;-64
2022/06/13 11:38:50;;;;;;;12.52;2.50;;;19.20;99.90;;;;;;5103947;28;20094;-65
2022/06/13 11:41:28;;;;;;;9.18;2.33;;;19.00;99.90;;;;;;5085861;28;20039;-63
2022/06/13 11:44:01;;;;;;;10.98;2.45;;;18.60;99.90;;;;;;5101998;28;20040;-64
2022/06/13 11:46:27;;;;;;;12.27;2.13;;;18.50;99.90;;;;;;5094362;28;20051;-64
2022/06/13 11:49:00;;;;;;;8.48;2.22;;;18.60;99.90;;;;;;5101705;28;20262;-64
2022/06/13 11:51:30;;;;;;;9.00;1.77;;;18.70;99.90;;;;;;5101067;28;20410;-64
2022/06/13 11:53:58;;;;;;;10.30;1.90;;;18.90;99.90;;;;;;5103406;28;20040;-64
2022/06/13 11:56:29;;;;;;;9.00;2.15;;;19.00;99.90;;;;;;5098998;28;20132;-65
2022/06/13 11:58:58;;;;;;;7.45;2.13;;;19.10;99.90;;;;;;5103743;28;20424;-65
2022/06/13 12:01:35;;;;;;;11.18;2.70;;;19.30;99.90;;;;;;5100768;28;20423;-63
2022/06/13 12:04:18;;;;;;;11.07;2.08;;;19.50;99.90;;;;;;5099675;28;20040;-62
2022/06/13 12:06:48;;;;;;;6.00;1.52;;;19.60;99.90;;;;;;5089713;28;20028;-63
2022/06/13 12:09:20;;;;;;;8.98;1.77;;;19.70;99.90;;;;;;5103384;28;20392;-62
2022/06/13 12:11:54;;;;;;;7.05;1.40;;;19.70;99.90;;;;;;5102241;28;20023;-63
2022/06/13 12:14:19;;;;;;;11.38;1.95;;;19.40;99.90;;;;;;5095671;28;20068;-62
2022/06/13 12:16:45;;;;;;;6.35;1.65;;;19.20;99.90;;;;;;5104440;28;20349;-62
2022/06/13 12:19:19;;;;;;;7.10;1.85;;;19.10;99.90;;;;;;5108349;28;20043;-62
2022/06/13 12:22:00;;;;;;;7.32;1.75;;;19.30;99.90;;;;;;5101055;28;20419;-62
2022/06/13 12:25:24;;;;;;;9.10;1.95;;;19.30;99.90;;;;;;5103287;28;20044;-63
2022/06/13 12:28:06;;;;;;;7.10;1.70;;;19.50;99.90;;;;;;5084631;28;20050;-62
2022/06/13 12:30:47;;;;;;;11.02;2.17;;;19.60;99.90;;;;;;5101169;28;20036;-64
2022/06/13 12:33:33;;;;;;;6.28;1.85;;;19.60;99.90;;;;;;5103445;28;20100;-64
2022/06/13 12:36:17;;;;;;;10.63;1.70;;;19.70;99.90;;;;;;5083353;28;20429;-63
2022/06/13 12:39:01;;;;;;;9.57;1.95;;;19.90;99.90;;;;;;5099209;28;20050;-64
2022/06/13 12:41:36;;;;;;;;;;;19.90;99.80;;;;;;5095214;28;20056;-63
2022/06/13 12:44:05;;;;;;;10.40;1.83;;;20.10;99.90;;;;;;5104330;28;20302;-63
2022/06/13 12:46:42;;;;;;;9.30;2.08;;;20.30;99.90;;;;;;5083814;28;20036;-62
2022/06/13 12:50:12;;;;;;;7.40;1.70;;;20.50;99.80;;;;;;5100043;28;20039;-64
2022/06/13 12:52:44;;;;;;;7.78;1.83;;;20.50;99.00;;;;;;5007940;28;20049;-64
2022/06/13 12:55:38;;;;;;;8.30;1.83;;;20.30;99.80;;;;;;5005081;28;20042;-63
2022/06/13 12:58:25;;;;;;;13.32;2.33;;;20.20;99.50;;;;;;5052145;28;20051;-63
2022/06/13 13:01:25;;;;;;;9.00;1.77;;;20.20;99.60;;;;;;5079651;28;20044;-64
2022/06/13 13:04:12;;;;;;;7.82;1.80;;;20.00;99.50;;;;;;5073603;28;20075;-64
2022/06/13 13:06:51;;;;;;;6.75;1.48;;;20.00;99.30;;;;;;5081047;28;20040;-64
2022/06/13 13:09:37;;;;;;;7.65;1.67;;;20.00;99.60;;;;;;5082129;28;20052;-63
2022/06/13 13:12:25;;;;;;;6.28;1.63;;;20.10;98.50;;;;;;5076601;28;20052;-64
2022/06/13 13:15:05;;;;;;;8.65;1.60;;;20.00;98.50;;;;;;5081314;28;20043;-64
2022/06/13 13:17:35;;;;;;;7.53;1.80;;;20.00;98.50;;;;;;5079103;28;20436;-63
2022/06/13 13:20:12;;;;;;;15.27;1.95;;;20.10;98.90;;;;;;5082322;28;20357;-63
2022/06/13 13:22:58;;;;;;;7.78;1.80;;;20.40;98.60;;;;;;5082777;28;20048;-64
2022/06/13 13:25:42;;;;;;;8.00;1.77;;;20.40;99.00;;;;;;5079282;28;20421;-64
2022/06/13 13:28:14;;;;;;;;;;;20.40;98.70;;;;;;5079303;28;20048;-64
2022/06/13 13:30:51;;;;;;;5.50;1.80;;;20.40;98.50;;;;;;5081041;28;20309;-64
2022/06/13 13:33:45;;;;;;;10.45;2.50;;;20.50;98.80;;;;;;5083662;28;20055;-64
2022/06/13 13:36:28;;;;;;;5.25;1.48;;;20.30;98.40;;;;;;5077395;28;20059;-64
2022/06/13 13:39:03;;;;;;;6.95;1.92;;;20.10;98.30;;;;;;5079502;28;20054;-64
2022/06/13 13:42:02;;;;;;;7.75;2.20;;;19.90;98.60;;;;;;5078148;28;20370;-64
2022/06/13 13:44:40;;;;;;;6.75;1.80;;;19.60;99.20;;;;;;5065866;28;20057;-64
2022/06/13 13:47:13;;;;;;;11.23;1.65;;;19.70;99.50;;;;;;5071925;28;20143;-63